Terminal Aerodrome Forecast
Issued by NWS Cleveland, OH

Home | Current Version | Previous Version | Text Only | Print | Product List | Glossary Off
Versions: 1 2 3 4 5 6 7 8 9 10 11 12 13 14 15 16 17 18 19 20 21 22 23 24 25 26 27 28 29 30 31 32 33 34 35

000
FTUS41 KCLE 270200 AAA
TAFCLE
TAF AMD
KCLE 270253Z 2703/2806 20006KT P6SM OVC050
     FM270500 22006KT P6SM OVC025
     FM270800 24006KT 5SM -SHSN BKN012 OVC020
     FM271200 30006KT 6SM -SHSN OVC022
     FM271400 34010KT P6SM OVC025
     FM280100 28010KT 2SM -SHSN SCT008 OVC012=

USA.gov is the U.S. government's official web portal to all federal, state and local government web resources and services.